Time;durP1;ratioP1;P1;durP2;ratioP2;P2;SDS_P1;SDS_P2;PMS_P1;PMS_P2;Temp;Humidity;BMP_temperature;BMP_pressure;BME280_temperature;BME280_humidity;BME280_pressure;Samples;Min_cycle;Max_cycle;Signal;HPM_P1;HPM_P2
2022/08/28 00:01:45;;;;;;;27.70;8.45;;;;;;;23.61;100.00;99117.47;1775224;80;21673;-77
2022/08/28 00:04:13;;;;;;;17.50;7.87;;;;;;;23.63;100.00;99113.64;1774025;80;21087;-76
2022/08/28 00:06:41;;;;;;;16.75;7.65;;;;;;;23.59;100.00;99110.09;1774144;80;21153;-73
2022/08/28 00:09:11;;;;;;;20.20;6.87;;;;;;;23.58;100.00;99100.84;1772996;80;21026;-76
2022/08/28 00:11:40;;;;;;;23.18;7.65;;;;;;;23.60;100.00;99100.42;1774090;80;20963;-74
2022/08/28 00:14:13;;;;;;;24.00;8.85;;;;;;;23.63;100.00;99097.39;1769797;80;20980;-77
2022/08/28 00:16:41;;;;;;;28.38;6.90;;;;;;;23.67;100.00;99091.10;1745505;80;21027;-77
2022/08/28 00:19:09;;;;;;;30.05;7.17;;;;;;;23.67;100.00;99093.91;1772491;80;20908;-77
2022/08/28 00:21:36;;;;;;;23.65;7.05;;;;;;;23.65;100.00;99094.94;1772710;80;21545;-77
2022/08/28 00:24:03;;;;;;;24.60;7.00;;;;;;;23.63;100.00;99099.58;1772584;80;21141;-76
2022/08/28 00:29:16;;;;;;;22.22;6.25;;;;;;;23.58;100.00;99089.60;1767408;80;21394;-76
2022/08/28 00:31:48;;;;;;;20.57;6.62;;;;;;;23.56;100.00;99087.03;1772456;80;20900;-72
2022/08/28 00:34:17;;;;;;;19.12;6.78;;;;;;;23.55;100.00;99089.05;1773970;80;21121;-73
2022/08/28 00:36:44;;;;;;;23.00;7.08;;;;;;;23.56;100.00;99088.44;1772554;80;21035;-72
2022/08/28 00:39:12;;;;;;;28.87;6.25;;;;;;;23.67;100.00;99084.08;1773949;80;21504;-73
2022/08/28 00:41:39;;;;;;;31.35;6.45;;;;;;;23.83;100.00;99073.01;1772602;80;20924;-70
2022/08/28 00:44:16;;;;;;;28.60;6.28;;;;;;;23.82;100.00;99078.45;1772862;80;20928;-73
2022/08/28 00:46:45;;;;;;;28.70;6.87;;;;;;;23.57;100.00;99083.80;1772837;80;21147;-72
2022/08/28 00:49:17;;;;;;;25.37;6.22;;;;;;;23.54;100.00;99084.62;1772529;80;21550;-75
2022/08/28 00:54:32;;;;;;;23.25;5.90;;;;;;;23.53;100.00;99080.83;1784654;79;21003;-74
2022/08/28 00:57:04;;;;;;;20.32;6.25;;;;;;;23.56;100.00;99083.59;1800814;79;20997;-72
2022/08/28 00:59:33;;;;;;;21.90;5.78;;;;;;;23.55;100.00;99081.20;1800240;79;21122;-75
2022/08/28 01:02:00;;;;;;;26.85;6.83;;;;;;;23.58;100.00;99083.98;1789204;79;21513;-71
2022/08/28 01:04:31;;;;;;;25.05;5.85;;;;;;;23.61;100.00;99082.95;1794401;79;21447;-70
2022/08/28 01:06:58;;;;;;;29.70;7.37;;;;;;;23.66;100.00;99081.09;1777563;79;20929;-70
2022/08/28 01:09:28;;;;;;;22.42;5.90;;;;;;;23.71;100.00;99083.44;1800359;78;20908;-73
2022/08/28 01:12:00;;;;;;;23.38;6.33;;;;;;;23.73;100.00;99078.16;1776508;79;21733;-70
2022/08/28 01:14:28;;;;;;;18.32;5.85;;;;;;;23.77;100.00;99078.13;1797288;79;20900;-74
2022/08/28 01:16:55;;;;;;;24.82;5.67;;;;;;;23.75;100.00;99077.77;1792829;79;20969;-70
2022/08/28 01:19:36;;;;;;;20.95;6.35;;;;;;;23.73;100.00;99083.78;1796743;79;20989;-71
2022/08/28 01:22:11;;;;;;;26.17;6.50;;;;;;;23.76;100.00;99073.13;1790029;78;20968;-73
2022/08/28 01:24:39;;;;;;;21.05;5.35;;;;;;;23.70;100.00;99072.78;1795921;78;20996;-71
2022/08/28 01:27:08;;;;;;;22.50;6.30;;;;;;;23.74;100.00;99071.94;1803801;79;20977;-71
2022/08/28 01:32:36;;;;;;;29.35;6.15;;;;;;;23.71;100.00;99066.56;1803542;79;20968;-75
2022/08/28 01:35:07;;;;;;;26.37;7.30;;;;;;;23.71;100.00;99073.59;1793691;79;20959;-71
2022/08/28 01:37:35;;;;;;;17.55;5.70;;;;;;;23.73;100.00;99059.11;1787021;79;21216;-73
2022/08/28 01:40:10;;;;;;;30.75;6.47;;;;;;;23.69;100.00;99053.53;1789414;78;21433;-71
2022/08/28 01:42:38;;;;;;;22.13;6.03;;;;;;;23.65;100.00;99047.95;1783782;79;21033;-73
2022/08/28 01:45:07;;;;;;;25.65;6.67;;;;;;;23.73;100.00;99043.02;1777925;79;21000;-71
2022/08/28 01:47:34;;;;;;;18.85;6.40;;;;;;;23.69;100.00;99022.00;1795370;79;21409;-71
2022/08/28 01:50:06;;;;;;;27.62;6.78;;;;;;;23.67;100.00;99012.38;1800041;79;20921;-72
2022/08/28 01:52:36;;;;;;;24.47;6.62;;;;;;;23.64;100.00;99009.02;1798019;79;21171;-74
2022/08/28 01:55:06;;;;;;;20.65;6.15;;;;;;;23.54;100.00;99005.14;1802574;79;20957;-71
2022/08/28 01:57:33;;;;;;;16.35;5.42;;;;;;;23.48;100.00;99004.80;1800799;79;21019;-69
2022/08/28 02:00:00;;;;;;;19.48;5.75;;;;;;;23.45;100.00;99003.64;1778522;79;21516;-74
2022/08/28 02:02:28;;;;;;;20.20;5.62;;;;;;;23.45;100.00;99005.05;1791247;78;21462;-75
2022/08/28 02:04:58;;;;;;;18.75;5.62;;;;;;;23.43;100.00;99001.86;1797277;79;20924;-74
2022/08/28 02:07:24;;;;;;;19.30;6.37;;;;;;;23.37;100.00;98999.30;1804987;79;20997;-75
2022/08/28 02:09:52;;;;;;;20.68;5.08;;;;;;;23.38;100.00;98998.08;1799225;78;20985;-72
2022/08/28 02:12:20;;;;;;;20.45;5.55;;;;;;;23.40;100.00;99001.30;1788640;79;21031;-75
2022/08/28 02:14:46;;;;;;;19.55;4.97;;;;;;;23.42;100.00;98999.47;1772553;79;21134;-75
2022/08/28 02:17:18;;;;;;;22.13;5.72;;;;;;;23.41;100.00;98995.05;1775272;79;21253;-76
2022/08/28 02:19:46;;;;;;;19.52;5.42;;;;;;;23.41;100.00;99002.87;1794315;79;20902;-73
2022/08/28 02:22:14;;;;;;;18.65;5.20;;;;;;;23.39;100.00;99005.91;1794547;78;21461;-75
2022/08/28 02:24:45;;;;;;;18.67;6.03;;;;;;;23.52;100.00;99008.97;1780985;79;21021;-71
2022/08/28 02:27:19;;;;;;;22.02;5.60;;;;;;;23.57;100.00;99012.13;1803595;79;21032;-73
2022/08/28 02:29:49;;;;;;;25.37;5.72;;;;;;;23.51;100.00;99008.80;1787641;79;20996;-71
2022/08/28 02:32:17;;;;;;;21.90;5.83;;;;;;;23.51;100.00;99012.38;1771356;79;21426;-71
2022/08/28 02:34:44;;;;;;;19.17;5.15;;;;;;;23.51;100.00;99001.14;1791702;79;21548;-72
2022/08/28 02:37:12;;;;;;;27.10;5.17;;;;;;;23.51;100.00;98996.92;1797608;79;21524;-72
2022/08/28 02:39:39;;;;;;;16.95;5.67;;;;;;;23.56;100.00;99004.11;1798819;78;21453;-73
2022/08/28 02:42:08;;;;;;;18.98;5.65;;;;;;;23.56;100.00;98999.27;1785708;79;21019;-76
2022/08/28 02:44:35;;;;;;;18.67;5.35;;;;;;;23.52;100.00;99001.95;1798057;79;21106;-75
2022/08/28 02:47:07;;;;;;;13.60;4.92;;;;;;;23.48;100.00;98999.18;1765731;79;20992;-76
2022/08/28 02:49:33;;;;;;;22.93;5.45;;;;;;;23.56;100.00;98998.48;1801448;79;21296;-73
2022/08/28 02:52:01;;;;;;;14.95;6.45;;;;;;;23.58;100.00;99001.66;1800195;79;21448;-76
2022/08/28 02:54:29;;;;;;;18.00;6.30;;;;;;;23.61;100.00;98998.62;1789361;79;21067;-69
2022/08/28 02:57:05;;;;;;;23.67;6.58;;;;;;;23.63;100.00;99000.41;1798972;79;21007;-71
2022/08/28 02:59:35;;;;;;;16.80;6.47;;;;;;;23.65;100.00;98999.35;1781410;79;21016;-74
2022/08/28 03:02:07;;;;;;;19.15;6.45;;;;;;;23.65;100.00;99002.97;1793837;79;20969;-72
2022/08/28 03:04:36;;;;;;;23.77;6.83;;;;;;;23.64;100.00;99001.98;1796748;79;20857;-71
2022/08/28 03:07:03;;;;;;;20.10;6.62;;;;;;;23.63;100.00;99008.21;1793915;78;21062;-74
2022/08/28 03:09:30;;;;;;;13.60;6.78;;;;;;;23.62;100.00;99011.45;1777866;79;20964;-71
2022/08/28 03:12:02;;;;;;;23.75;6.37;;;;;;;23.61;100.00;99012.05;1762298;79;20997;-72
2022/08/28 03:14:31;;;;;;;18.62;6.95;;;;;;;23.65;100.00;99020.44;1782819;79;21470;-74
2022/08/28 03:17:00;;;;;;;27.60;6.53;;;;;;;23.66;100.00;99016.42;1781988;79;21528;-75
2022/08/28 03:19:26;;;;;;;22.90;7.08;;;;;;;23.66;100.00;99007.99;1802380;79;20918;-71
2022/08/28 03:21:54;;;;;;;21.00;6.50;;;;;;;23.66;100.00;99020.01;1807199;79;21056;-70
2022/08/28 03:24:21;;;;;;;15.78;5.83;;;;;;;23.69;100.00;99024.01;1802641;79;21075;-75
2022/08/28 03:26:49;;;;;;;23.50;6.65;;;;;;;23.57;100.00;99025.37;1797992;78;20914;-70
2022/08/28 03:29:16;;;;;;;21.17;7.33;;;;;;;23.54;100.00;99031.84;1804106;79;21122;-74
2022/08/28 03:31:43;;;;;;;20.30;6.17;;;;;;;23.52;100.00;99029.45;1781928;79;20973;-73
2022/08/28 03:34:14;;;;;;;26.27;7.33;;;;;;;23.58;100.00;99035.39;1803269;79;21032;-70
2022/08/28 03:37:00;;;;;;;23.55;7.65;;;;;;;23.69;100.00;99043.69;1774957;79;21438;-73
2022/08/28 03:39:38;;;;;;;21.48;7.80;;;;;;;23.69;100.00;99043.09;1777904;79;21103;-73
2022/08/28 03:42:10;;;;;;;18.75;7.40;;;;;;;23.69;100.00;99057.15;1791381;79;21005;-71
2022/08/28 03:44:43;;;;;;;20.88;6.22;;;;;;;23.68;100.00;99052.72;1782641;79;21515;-72
2022/08/28 03:47:21;;;;;;;22.87;7.87;;;;;;;23.72;100.00;99058.30;1788371;78;21028;-70
2022/08/28 03:49:56;;;;;;;20.48;7.85;;;;;;;23.74;100.00;99054.47;1806740;79;21678;-72
2022/08/28 03:52:27;;;;;;;30.50;8.28;;;;;;;23.78;100.00;99058.02;1795576;78;21804;-69
2022/08/28 03:55:21;;;;;;;20.82;7.17;;;;;;;23.75;100.00;99059.49;1803505;79;20976;-73
2022/08/28 03:58:02;;;;;;;20.35;7.92;;;;;;;23.74;100.00;99062.09;1798665;79;20953;-73
2022/08/28 04:00:40;;;;;;;24.90;7.22;;;;;;;23.73;100.00;99059.89;1785576;79;20959;-70
2022/08/28 04:08:30;;;;;;;28.35;8.43;;;;;;;23.74;100.00;99055.87;1774167;79;21110;-74
2022/08/28 04:11:04;;;;;;;18.37;8.10;;;;;;;23.77;100.00;99055.02;1790556;78;20968;-70
2022/08/28 04:13:40;;;;;;;24.75;8.03;;;;;;;23.80;100.00;99057.59;1804619;79;21516;-72
2022/08/28 04:16:21;;;;;;;26.70;8.38;;;;;;;23.84;100.00;99052.72;1789615;79;20928;-73
2022/08/28 04:18:56;;;;;;;22.00;8.83;;;;;;;23.87;100.00;99044.03;1771573;79;20928;-70
2022/08/28 04:21:26;;;;;;;24.63;9.55;;;;;;;23.90;100.00;99040.41;1779710;79;21841;-70
2022/08/28 04:23:54;;;;;;;24.55;9.05;;;;;;;23.91;100.00;99038.56;1802165;79;21009;-70
2022/08/28 04:26:23;;;;;;;25.60;9.35;;;;;;;23.77;100.00;99036.75;1775487;78;20999;-72
2022/08/28 04:28:55;;;;;;;20.72;8.50;;;;;;;23.70;100.00;99040.45;1802686;79;20941;-71
2022/08/28 04:31:26;;;;;;;23.35;9.68;;;;;;;23.73;100.00;99045.83;1795833;79;21087;-73
2022/08/28 04:36:37;;;;;;;22.48;9.15;;;;;;;23.76;100.00;99042.20;1794804;79;21378;-69
2022/08/28 04:39:07;;;;;;;27.13;7.87;;;;;;;23.77;100.00;99040.16;1798304;79;20920;-74
2022/08/28 04:41:37;;;;;;;23.45;8.25;;;;;;;23.77;100.00;99036.75;1800930;79;20956;-72
2022/08/28 04:44:04;;;;;;;26.15;7.80;;;;;;;23.65;100.00;99041.52;1788600;79;21508;-73
2022/08/28 04:46:33;;;;;;;24.80;7.60;;;;;;;23.49;100.00;99034.48;1799984;79;21764;-74
2022/08/28 04:49:12;;;;;;;24.70;8.18;;;;;;;23.49;100.00;99039.33;1790757;78;20877;-74
2022/08/28 04:51:50;;;;;;;20.43;7.62;;;;;;;23.54;100.00;99043.08;1766386;79;21031;-73
2022/08/28 04:54:32;;;;;;;;;;;;;;;23.59;100.00;99046.84;1787772;79;20937;-70
2022/08/28 04:57:11;;;;;;;25.05;8.25;;;;;;;23.61;100.00;99042.97;1777940;79;20116;-75
2022/08/28 05:00:17;;;;;;;37.17;8.88;;;;;;;23.70;100.00;99039.65;1792490;78;22585;-73
2022/08/28 05:02:58;;;;;;;22.25;7.05;;;;;;;23.69;100.00;99046.50;1793577;79;20980;-74
2022/08/28 05:05:33;;;;;;;20.25;7.72;;;;;;;23.78;100.00;99044.58;1792516;78;20968;-74
2022/08/28 05:08:00;;;;;;;25.55;7.83;;;;;;;23.86;100.00;99038.23;1799609;79;21047;-74
2022/08/28 05:10:27;;;;;;;22.93;7.62;;;;;;;23.89;100.00;99033.16;1788882;79;20936;-73
2022/08/28 05:12:53;;;;;;;19.30;7.00;;;;;;;23.81;100.00;99038.91;1797327;79;21201;-73
2022/08/28 05:15:21;;;;;;;15.40;7.78;;;;;;;23.82;100.00;99044.71;1804966;79;21572;-70
2022/08/28 05:17:47;;;;;;;14.63;6.80;;;;;;;23.88;100.00;99047.05;1798240;79;21134;-74
2022/08/28 05:20:22;;;;;;;25.15;6.78;;;;;;;23.93;100.00;99053.61;1803512;79;20992;-73
2022/08/28 05:22:49;;;;;;;16.00;6.65;;;;;;;23.94;100.00;99058.00;1797746;79;21100;-71
2022/08/28 05:25:17;;;;;;;24.87;7.47;;;;;;;24.11;100.00;99057.56;1803003;79;21131;-69
2022/08/28 05:27:44;;;;;;;23.38;6.75;;;;;;;24.21;100.00;99049.43;1803443;79;21537;-75
2022/08/28 05:30:14;;;;;;;29.92;7.15;;;;;;;24.25;100.00;99049.55;1796354;79;20889;-74
2022/08/28 05:32:49;;;;;;;32.40;7.05;;;;;;;24.26;100.00;99046.13;1799514;79;20934;-72
2022/08/28 05:35:21;;;;;;;30.60;6.45;;;;;;;24.27;100.00;99056.16;1805740;79;20976;-72
2022/08/28 05:37:49;;;;;;;21.23;7.78;;;;;;;24.23;100.00;99048.37;1788543;78;20922;-71
2022/08/28 05:40:21;;;;;;;28.07;7.67;;;;;;;24.28;100.00;99057.13;1784099;79;20972;-73
2022/08/28 05:42:49;;;;;;;20.80;7.30;;;;;;;24.45;100.00;99050.23;1765538;79;20991;-75
2022/08/28 05:45:15;;;;;;;18.67;6.72;;;;;;;24.51;100.00;99051.96;1794153;79;20993;-72
2022/08/28 05:47:47;;;;;;;27.13;7.00;;;;;;;24.42;100.00;99053.30;1798634;79;20921;-74
2022/08/28 05:50:22;;;;;;;25.88;7.17;;;;;;;24.43;100.00;99059.70;1803116;79;21218;-75
2022/08/28 05:52:57;;;;;;;24.82;7.80;;;;;;;24.41;100.00;99054.51;1798090;79;21508;-75
2022/08/28 05:55:23;;;;;;;26.77;8.15;;;;;;;24.58;100.00;99064.52;1803098;79;21524;-74
2022/08/28 05:58:27;;;;;;;24.50;7.55;;;;;;;24.54;100.00;99058.94;1787436;79;21005;-74
2022/08/28 06:00:32;;;;;;;21.75;6.45;;;;;;;24.63;100.00;99064.63;1789903;78;21140;-75
2022/08/28 06:03:07;;;;;;;21.85;6.72;;;;;;;24.68;100.00;99066.96;1789970;79;21111;-73
2022/08/28 06:06:09;;;;;;;27.77;7.53;;;;;;;24.70;100.00;99057.48;1786502;78;20999;-75
2022/08/28 06:08:51;;;;;;;20.20;7.47;;;;;;;24.85;100.00;99058.02;1800667;79;20953;-76
2022/08/28 06:11:30;;;;;;;24.20;7.28;;;;;;;24.88;100.00;99059.16;1799830;78;21264;-75
2022/08/28 06:17:03;;;;;;;22.32;6.40;;;;;;;25.03;100.00;99070.39;1800424;78;21185;-75
2022/08/28 06:19:34;;;;;;;37.80;7.60;;;;;;;25.12;100.00;99069.02;1787364;79;20952;-72
2022/08/28 06:22:36;;;;;;;25.25;6.58;;;;;;;25.19;100.00;99075.94;1801581;79;21011;-68
2022/08/28 06:25:29;;;;;;;25.35;6.62;;;;;;;25.25;100.00;99071.37;1712115;82;21579;-75
2022/08/28 06:28:06;;;;;;;24.98;7.45;;;;;;;25.31;100.00;99077.92;1798140;79;21067;-74
2022/08/28 06:30:39;;;;;;;26.80;7.70;;;;;;;25.33;100.00;99072.66;1794243;78;20934;-69
2022/08/28 06:33:06;;;;;;;21.80;8.45;;;;;;;25.38;100.00;99077.19;1771733;79;20969;-73
2022/08/28 06:35:43;;;;;;;31.48;7.42;;;;;;;25.39;100.00;99076.55;1786401;78;20904;-70
2022/08/28 06:38:18;;;;;;;29.87;8.43;;;;;;;25.44;100.00;99081.69;1779987;78;20956;-75
2022/08/28 06:40:55;;;;;;;25.52;7.72;;;;;;;25.47;100.00;99082.86;1799131;79;21421;-71
2022/08/28 06:43:36;;;;;;;23.12;7.45;;;;;;;25.53;100.00;99083.33;1803762;78;20966;-75
2022/08/28 06:46:10;;;;;;;32.00;7.17;;;;;;;25.66;100.00;99086.14;1800278;79;21040;-72
2022/08/28 06:48:43;;;;;;;23.80;6.85;;;;;;;25.66;100.00;99086.14;1773224;79;21602;-75
2022/08/28 06:51:20;;;;;;;29.92;6.78;;;;;;;25.70;100.00;99083.41;1783268;79;21409;-74
2022/08/28 06:54:04;;;;;;;24.02;7.17;;;;;;;25.70;100.00;99076.36;1730448;79;20941;-75
2022/08/28 06:57:14;;;;;;;24.95;7.72;;;;;;;25.70;100.00;99076.97;1775088;79;21051;-74
2022/08/28 06:59:44;;;;;;;31.20;8.28;;;;;;;25.72;100.00;99081.56;1783041;79;20944;-75
2022/08/28 07:02:20;;;;;;;21.80;7.22;;;;;;;25.73;100.00;99091.61;1788518;79;21047;-74
2022/08/28 07:05:00;;;;;;;38.10;8.38;;;;;;;25.74;100.00;99084.75;1798128;79;20845;-74
2022/08/28 07:07:27;;;;;;;25.52;7.45;;;;;;;25.78;100.00;99078.41;1778353;79;20972;-74
2022/08/28 07:10:00;;;;;;;20.72;7.75;;;;;;;25.81;100.00;99077.52;1794765;79;21631;-74
2022/08/28 07:12:30;;;;;;;27.00;7.30;;;;;;;25.80;100.00;99079.37;1770564;79;20973;-76
2022/08/28 07:15:08;;;;;;;36.73;7.00;;;;;;;25.82;100.00;99079.74;1801191;79;21556;-75
2022/08/28 07:17:42;;;;;;;38.98;9.03;;;;;;;25.82;100.00;99082.56;1801132;78;20960;-74
2022/08/28 07:20:23;;;;;;;26.95;6.25;;;;;;;25.84;100.00;99078.09;1776973;79;21028;-75
2022/08/28 07:23:07;;;;;;;31.87;8.20;;;;;;;25.86;100.00;99082.66;1799008;78;20941;-76
2022/08/28 07:25:45;;;;;;;25.23;6.33;;;;;;;25.88;100.00;99077.98;1797768;79;21024;-73
2022/08/28 07:28:17;;;;;;;32.13;7.97;;;;;;;25.89;100.00;99071.13;1803435;79;20960;-72
2022/08/28 07:30:47;;;;;;;22.82;6.78;;;;;;;25.94;100.00;99074.04;1800083;79;20945;-72
2022/08/28 07:33:21;;;;;;;29.32;8.80;;;;;;;25.99;100.00;99071.51;1795179;79;20928;-73
2022/08/28 07:36:03;;;;;;;32.45;7.55;;;;;;;26.06;100.00;99068.34;1780329;79;21452;-71
2022/08/28 07:38:33;;;;;;;39.65;7.30;;;;;;;26.11;100.00;99067.20;1773567;79;20955;-70
2022/08/28 07:47:18;;;;;;;40.25;8.40;;;;;;;26.29;100.00;99063.79;1800783;78;20966;-70
2022/08/28 08:01:50;;;;;;;47.45;8.70;;;;;;;26.95;100.00;99069.43;1725850;82;20988;-70
2022/08/28 08:04:24;;;;;;;35.03;8.13;;;;;;;27.13;100.00;99074.42;1735733;82;21040;-74
2022/08/28 08:10:27;;;;;;;35.23;8.98;;;;;;;27.21;100.00;99066.72;1649605;83;21040;-71
2022/08/28 08:13:02;;;;;;;38.78;9.43;;;;;;;27.32;100.00;99068.46;1708805;82;21064;-70
2022/08/28 08:15:34;;;;;;;33.63;9.00;;;;;;;27.42;100.00;99067.36;1743154;82;21109;-72
2022/08/28 08:18:02;;;;;;;27.45;7.87;;;;;;;27.49;100.00;99069.80;1737460;81;21609;-72
2022/08/28 08:20:31;;;;;;;27.05;8.00;;;;;;;27.56;100.00;99069.60;1718056;82;21657;-72
2022/08/28 08:23:34;;;;;;;39.00;8.60;;;;;;;27.61;100.00;99067.64;1720976;81;21475;-71
2022/08/28 08:29:52;;;;;;;43.73;8.00;;;;;;;27.72;100.00;99073.63;1645623;85;21015;-70
2022/08/28 08:32:47;;;;;;;36.03;8.95;;;;;;;27.82;99.37;99064.80;1723437;82;21056;-72
2022/08/28 08:35:37;;;;;;;34.50;7.92;;;;;;;28.03;96.61;99061.79;1706892;82;20964;-70
2022/08/28 08:44:46;;;;;;;44.13;8.38;;;;;;;28.40;93.57;99048.09;1803149;78;21009;-70
2022/08/28 08:47:45;;;;;;;45.33;7.78;;;;;;;28.84;92.28;99049.45;1762924;79;21147;-74
2022/08/28 08:50:25;;;;;;;35.10;7.15;;;;;;;28.96;93.65;99049.86;1779773;79;20969;-71
2022/08/28 08:53:37;;;;;;;28.75;6.70;;;;;;;29.09;92.99;99042.13;1790331;79;32467;-72
2022/08/28 08:59:05;;;;;;;44.00;8.30;;;;;;;29.19;87.92;99037.95;1792816;79;21013;-71
2022/08/28 09:01:53;;;;;;;32.50;8.88;;;;;;;29.39;87.22;99039.04;1796403;79;21147;-73
2022/08/28 09:04:39;;;;;;;26.87;7.35;;;;;;;29.60;83.57;99043.77;1792950;78;21093;-72
2022/08/28 09:07:24;;;;;;;32.67;8.10;;;;;;;29.70;81.03;99046.02;1787540;79;21000;-68
2022/08/28 09:09:57;;;;;;;25.95;7.30;;;;;;;29.73;79.60;99050.15;1798375;79;21473;-73
2022/08/28 09:12:40;;;;;;;31.42;7.53;;;;;;;29.77;85.13;99051.41;1797811;79;20980;-70
2022/08/28 09:15:39;;;;;;;30.82;7.78;;;;;;;29.76;85.22;99053.47;1800570;79;20980;-70
2022/08/28 09:18:24;;;;;;;36.70;6.40;;;;;;;29.91;83.79;99050.06;1801185;78;21040;-72
2022/08/28 09:23:45;;;;;;;32.67;6.80;;;;;;;30.22;79.54;99054.16;1790787;79;20888;-71
2022/08/28 09:26:22;;;;;;;28.50;6.55;;;;;;;30.37;76.76;99048.05;1799030;79;20995;-74
2022/08/28 09:29:00;;;;;;;23.25;6.42;;;;;;;30.46;74.64;99047.91;1801820;79;21116;-71
2022/08/28 09:31:43;;;;;;;26.90;6.85;;;;;;;30.51;73.77;99052.97;1798426;79;21390;-74
2022/08/28 09:34:35;;;;;;;26.63;6.60;;;;;;;30.56;73.94;99055.19;1797012;79;20976;-69
2022/08/28 09:37:14;;;;;;;26.50;7.42;;;;;;;30.59;73.99;99057.09;1789557;79;20981;-70
2022/08/28 09:39:43;;;;;;;33.33;7.67;;;;;;;30.75;74.43;99049.53;1804426;78;21033;-75
2022/08/28 09:45:19;;;;;;;30.30;6.03;;;;;;;31.12;67.47;99049.43;1792052;79;20928;-72
2022/08/28 09:47:59;;;;;;;22.10;7.08;;;;;;;31.28;63.19;99050.52;1772805;79;21480;-73
2022/08/28 09:50:41;;;;;;;21.60;5.50;;;;;;;31.30;58.65;99049.41;1795808;79;20996;-73
2022/08/28 09:53:17;;;;;;;15.98;4.90;;;;;;;31.29;55.91;99052.08;1801345;79;26704;-74
2022/08/28 09:56:13;;;;;;;19.55;4.85;;;;;;;31.25;54.05;99053.52;1768129;79;20984;-76
2022/08/28 09:58:56;;;;;;;21.40;5.08;;;;;;;31.36;54.56;99053.04;1756183;79;21041;-73
2022/08/28 10:01:58;;;;;;;21.07;5.65;;;;;;;31.53;54.79;99052.86;1783758;79;20925;-75
2022/08/28 10:04:58;;;;;;;21.87;4.87;;;;;;;31.56;56.98;99053.33;1796752;79;20993;-72
2022/08/28 10:07:56;;;;;;;18.35;5.08;;;;;;;31.60;55.05;99063.75;1777150;79;21015;-76
2022/08/28 10:10:36;;;;;;;17.42;5.30;;;;;;;31.60;55.31;99058.05;1797419;79;21138;-72
2022/08/28 10:13:12;;;;;;;31.07;6.35;;;;;;;31.62;60.84;99060.59;1791289;79;21028;-75
2022/08/28 10:15:59;;;;;;;;;;;;;;;31.56;55.36;99055.41;1804659;79;20908;-73
2022/08/28 10:18:48;;;;;;;21.70;4.58;;;;;;;31.57;56.06;99059.81;1786260;79;20142;-76
2022/08/28 10:21:53;;;;;;;16.55;4.30;;;;;;;31.49;55.39;99055.73;1792309;78;20920;-75
2022/08/28 10:24:30;;;;;;;18.92;5.87;;;;;;;31.52;54.51;99052.72;1802647;79;21535;-71
2022/08/28 10:27:38;;;;;;;14.80;4.47;;;;;;;31.39;50.71;99052.09;1803620;79;20942;-74
2022/08/28 10:30:15;;;;;;;20.68;5.60;;;;;;;31.39;55.15;99054.92;1712886;83;21021;-72
2022/08/28 10:33:32;;;;;;;16.87;4.20;;;;;;;31.39;49.82;99046.39;1714549;82;21009;-76
2022/08/28 10:36:30;;;;;;;19.10;4.90;;;;;;;31.44;52.16;99050.05;1717842;83;21095;-74
2022/08/28 10:39:24;;;;;;;16.37;4.50;;;;;;;31.64;51.15;99039.56;1712646;83;21590;-73
2022/08/28 10:44:57;;;;;;;17.65;4.80;;;;;;;31.78;50.66;99043.77;1777375;79;20929;-75
2022/08/28 10:47:27;;;;;;;15.65;4.92;;;;;;;31.85;50.60;99044.09;1787009;79;20909;-72
2022/08/28 10:50:26;;;;;;;16.70;5.35;;;;;;;31.91;54.56;99040.73;1774048;79;21032;-75
2022/08/28 10:53:09;;;;;;;19.02;4.50;;;;;;;31.90;51.85;99044.84;1798842;79;21410;-74
2022/08/28 10:56:01;;;;;;;18.60;4.92;;;;;;;31.83;51.57;99042.35;1803866;78;20925;-74
2022/08/28 10:58:31;;;;;;;16.25;5.25;;;;;;;31.79;52.50;99044.57;1800576;78;21532;-76
2022/08/28 11:01:19;;;;;;;15.60;4.37;;;;;;;31.61;54.92;99039.73;1795655;79;20933;-76
2022/08/28 11:03:50;;;;;;;10.15;4.90;;;;;;;31.52;55.13;99035.64;1800005;79;21024;-76
2022/08/28 11:06:36;;;;;;;16.10;4.97;;;;;;;31.44;56.43;99050.05;1767690;79;20892;-75
2022/08/28 11:09:25;;;;;;;16.12;5.58;;;;;;;31.32;57.82;99040.40;1788175;79;20972;-74
2022/08/28 11:12:37;;;;;;;10.18;4.58;;;;;;;31.27;57.93;99046.08;1786990;78;20878;-74
2022/08/28 11:15:30;;;;;;;16.55;5.30;;;;;;;31.27;59.52;99038.19;1760892;79;20981;-72
2022/08/28 11:18:14;;;;;;;14.67;4.83;;;;;;;31.31;61.55;99043.87;1792654;79;21084;-75
2022/08/28 11:20:57;;;;;;;16.62;5.60;;;;;;;31.36;61.77;99043.09;1779827;78;21724;-72
2022/08/28 11:23:50;;;;;;;13.90;5.25;;;;;;;31.32;60.02;99039.75;1791476;79;20992;-77
2022/08/28 11:26:41;;;;;;;10.40;4.95;;;;;;;31.38;59.82;99045.59;1791324;79;21070;-71
2022/08/28 11:29:08;;;;;;;11.73;4.72;;;;;;;31.47;60.97;99041.98;1780659;79;20834;-75
2022/08/28 11:34:57;;;;;;;11.18;5.00;;;;;;;31.53;59.76;99043.53;1806435;79;20952;-76
2022/08/28 11:37:44;;;;;;;16.37;6.12;;;;;;;31.52;56.91;99051.92;1800037;79;20989;-73
2022/08/28 11:40:56;;;;;;;14.85;5.33;;;;;;;31.51;58.01;99056.05;1786805;78;21235;-73
2022/08/28 11:43:36;;;;;;;15.15;5.60;;;;;;;31.40;54.25;99055.91;1775592;80;21576;-73
2022/08/28 11:46:07;;;;;;;12.82;5.65;;;;;;;31.37;53.94;99051.14;1772689;80;21536;-74
2022/08/28 11:48:41;;;;;;;19.50;6.67;;;;;;;31.43;55.54;99056.37;1775640;79;21120;-77
2022/08/28 11:51:38;;;;;;;15.70;6.72;;;;;;;31.48;54.56;99045.63;1787721;79;20926;-75
2022/08/28 11:55:00;;;;;;;14.63;7.30;;;;;;;31.46;51.99;99049.72;1775975;79;20965;-74
2022/08/28 11:58:10;;;;;;;18.05;8.13;;;;;;;31.51;55.94;99046.85;1763467;79;21035;-70
2022/08/28 12:00:51;;;;;;;22.90;9.38;;;;;;;31.58;52.88;99054.27;1772704;79;20993;-72
2022/08/28 12:03:40;;;;;;;21.85;8.83;;;;;;;31.53;54.13;99059.98;1779172;79;21076;-75
2022/08/28 12:06:07;;;;;;;16.87;9.78;;;;;;;31.50;51.21;99055.25;1801180;79;20917;-76
2022/08/28 12:08:57;;;;;;;22.67;8.90;;;;;;;31.43;49.72;99057.79;1796978;78;21020;-71
2022/08/28 12:11:47;;;;;;;30.65;10.60;;;;;;;31.43;52.48;99056.99;1788903;79;20953;-74
2022/08/28 12:14:43;;;;;;;24.72;11.33;;;;;;;31.52;51.04;99056.98;1715676;81;20962;-76
2022/08/28 12:17:27;;;;;;;27.37;11.40;;;;;;;31.49;49.93;99059.38;1784577;79;20973;-74
2022/08/28 12:20:13;;;;;;;26.17;10.58;;;;;;;31.56;51.73;99054.75;1794129;79;20889;-74
2022/08/28 12:22:56;;;;;;;28.75;8.38;;;;;;;31.63;51.83;99050.01;1772645;79;21035;-70
2022/08/28 12:25:45;;;;;;;18.80;9.13;;;;;;;31.75;49.50;99058.97;1801547;78;20964;-72
2022/08/28 12:28:21;;;;;;;24.95;9.95;;;;;;;31.57;49.49;99042.73;1795730;79;21548;-77
2022/08/28 12:35:00;;;;;;;27.87;11.78;;;;;;;31.56;51.99;99047.63;1764800;79;21063;-76
2022/08/28 12:37:40;;;;;;;26.93;12.23;;;;;;;31.60;53.20;99048.09;1789909;79;21010;-76
2022/08/28 12:40:26;;;;;;;22.17;11.43;;;;;;;31.75;54.07;99041.89;1804448;78;21024;-77
2022/08/28 12:43:09;;;;;;;25.37;12.85;;;;;;;31.92;52.67;99045.81;1751641;79;20992;-72
2022/08/28 12:46:05;;;;;;;22.02;12.47;;;;;;;32.01;52.71;99044.98;1784538;79;21149;-72
2022/08/28 12:48:48;;;;;;;30.95;14.53;;;;;;;31.94;55.59;99046.09;1788552;79;20999;-75
2022/08/28 12:51:27;;;;;;;28.55;14.15;;;;;;;31.90;54.74;99038.38;1796540;79;20892;-74
2022/08/28 12:53:58;;;;;;;41.90;15.23;;;;;;;31.82;54.21;99040.13;1784091;79;21068;-74
2022/08/28 12:56:32;;;;;;;28.67;15.10;;;;;;;31.75;56.21;99043.31;1799431;78;20908;-75
2022/08/28 12:59:26;;;;;;;29.72;15.80;;;;;;;31.79;53.43;99038.25;1795274;79;21434;-76
2022/08/28 13:01:53;;;;;;;34.63;14.23;;;;;;;31.94;52.97;99046.09;1799706;79;21040;-77
2022/08/28 13:04:36;;;;;;;26.07;13.93;;;;;;;31.94;52.97;99046.09;1752478;79;21510;-75
2022/08/28 13:07:14;;;;;;;28.52;14.78;;;;;;;32.01;50.02;99050.05;1801387;79;20944;-75
2022/08/28 13:09:49;;;;;;;26.85;15.08;;;;;;;31.83;49.95;99047.39;1782142;79;21006;-75
2022/08/28 13:12:27;;;;;;;38.45;15.10;;;;;;;31.80;51.69;99044.09;1789763;78;21740;-74
2022/08/28 13:14:55;;;;;;;40.15;14.45;;;;;;;31.90;49.58;99044.84;1800348;79;20948;-72